FAUP

Pierre Van Ryneveld Airport

Upington, South Africa
METAR FAUP 181000Z 00000KT CAVOK 18/M03 Q1021 NOSIG
Observed Flight Rules
Jun-18 @ 10:00 UTC (an hour ago) Visual Flight Rules
Visibility Clouds
10,000+ meters
  • Clear skies
Temperatures Readings
Current 18°C / 64°F
Dewpoint -3°C / 27°F
Humidity 24%
Altimeter 30.15" Hg
Pressure 1021 hPa
Elevation 836
METAR FAUP 181000Z 00000KT CAVOK 18/M03 Q1021 NOSIG
Observed Flight Rules
Jun-18 @ 10:00 UTC
(an hour ago)
VFR
Clouds
  • Clear skies
Temperature Dewpoint
18°C / 64°F -3°C / 27°F
Humidity Altimeter Pressure
24% 30.15" Hg 1021 hPa